sensor_id;sensor_type;location;lat;lon;timestamp;pressure;altitude;pressure_sealevel;temperature;humidity
63819;BME280;49970;54.976;73.248;2022-12-18T00:01:26;102343.50;;;-19.63;78.98
63819;BME280;49970;54.976;73.248;2022-12-18T00:03:53;102340.81;;;-19.65;79.76
63819;BME280;49970;54.976;73.248;2022-12-18T00:06:21;102349.31;;;-19.64;79.31
63819;BME280;49970;54.976;73.248;2022-12-18T00:08:48;102349.16;;;-19.66;79.17
63819;BME280;49970;54.976;73.248;2022-12-18T00:11:18;102352.34;;;-19.68;79.56
63819;BME280;49970;54.976;73.248;2022-12-18T00:13:45;102348.91;;;-19.69;79.67
63819;BME280;49970;54.976;73.248;2022-12-18T00:16:14;102355.22;;;-19.64;79.01
63819;BME280;49970;54.976;73.248;2022-12-18T00:18:41;102352.56;;;-19.65;78.55
63819;BME280;49970;54.976;73.248;2022-12-18T00:21:18;102358.50;;;-19.65;78.63
63819;BME280;49970;54.976;73.248;2022-12-18T00:23:46;102347.78;;;-19.72;78.62
63819;BME280;49970;54.976;73.248;2022-12-18T00:26:15;102336.03;;;-19.82;78.90
63819;BME280;49970;54.976;73.248;2022-12-18T00:28:42;102372.63;;;-19.67;78.85
63819;BME280;49970;54.976;73.248;2022-12-18T00:31:19;102375.78;;;-19.69;78.75
63819;BME280;49970;54.976;73.248;2022-12-18T00:33:45;102378.19;;;-19.71;79.59
63819;BME280;49970;54.976;73.248;2022-12-18T00:36:25;102370.72;;;-19.79;79.10
63819;BME280;49970;54.976;73.248;2022-12-18T00:38:57;102391.41;;;-19.73;78.60
63819;BME280;49970;54.976;73.248;2022-12-18T00:41:25;102392.28;;;-19.73;78.49
63819;BME280;49970;54.976;73.248;2022-12-18T00:44:12;102394.97;;;-19.71;79.58
63819;BME280;49970;54.976;73.248;2022-12-18T00:46:45;102402.03;;;-19.67;78.65
63819;BME280;49970;54.976;73.248;2022-12-18T00:49:11;102399.63;;;-19.66;78.63
63819;BME280;49970;54.976;73.248;2022-12-18T00:51:37;102400.66;;;-19.64;78.54
63819;BME280;49970;54.976;73.248;2022-12-18T00:54:04;102405.91;;;-19.60;79.42
63819;BME280;49970;54.976;73.248;2022-12-18T00:56:31;102397.97;;;-19.65;78.73
63819;BME280;49970;54.976;73.248;2022-12-18T00:59:07;102404.41;;;-19.58;78.70
63819;BME280;49970;54.976;73.248;2022-12-18T01:01:33;102391.78;;;-19.58;78.76
63819;BME280;49970;54.976;73.248;2022-12-18T01:04:02;102399.47;;;-19.57;79.60
63819;BME280;49970;54.976;73.248;2022-12-18T01:06:29;102400.34;;;-19.56;78.95
63819;BME280;49970;54.976;73.248;2022-12-18T01:08:55;102401.22;;;-19.56;78.55
63819;BME280;49970;54.976;73.248;2022-12-18T01:11:22;102405.53;;;-19.55;78.70
63819;BME280;49970;54.976;73.248;2022-12-18T01:13:51;102402.00;;;-19.57;78.93
63819;BME280;49970;54.976;73.248;2022-12-18T01:16:27;102394.31;;;-19.58;79.03
63819;BME280;49970;54.976;73.248;2022-12-18T01:18:54;102401.38;;;-19.54;79.41
63819;BME280;49970;54.976;73.248;2022-12-18T01:21:24;102417.28;;;-19.55;79.22
63819;BME280;49970;54.976;73.248;2022-12-18T01:23:53;102415.63;;;-19.55;79.11
63819;BME280;49970;54.976;73.248;2022-12-18T01:26:19;102421.41;;;-19.56;79.05
63819;BME280;49970;54.976;73.248;2022-12-18T01:28:46;102423.69;;;-19.59;80.02
63819;BME280;49970;54.976;73.248;2022-12-18T01:31:21;102420.19;;;-19.61;79.61
63819;BME280;49970;54.976;73.248;2022-12-18T01:33:53;102416.00;;;-19.71;79.11
63819;BME280;49970;54.976;73.248;2022-12-18T01:36:33;102420.56;;;-19.67;78.90
63819;BME280;49970;54.976;73.248;2022-12-18T01:39:02;102411.47;;;-19.65;79.75
63819;BME280;49970;54.976;73.248;2022-12-18T01:41:30;102414.75;;;-19.66;79.30
63819;BME280;49970;54.976;73.248;2022-12-18T01:47:30;102429.41;;;-19.72;79.33
63819;BME280;49970;54.976;73.248;2022-12-18T01:50:00;102429.50;;;-19.80;79.00
63819;BME280;49970;54.976;73.248;2022-12-18T01:52:29;102441.34;;;-19.79;79.19
63819;BME280;49970;54.976;73.248;2022-12-18T01:55:05;102441.09;;;-19.82;78.65
63819;BME280;49970;54.976;73.248;2022-12-18T01:57:46;102447.00;;;-19.82;78.80
63819;BME280;49970;54.976;73.248;2022-12-18T02:00:20;102437.81;;;-19.81;78.72
63819;BME280;49970;54.976;73.248;2022-12-18T02:02:57;102431.09;;;-19.91;78.64
63819;BME280;49970;54.976;73.248;2022-12-18T02:11:10;102448.16;;;-19.89;78.70
63819;BME280;49970;54.976;73.248;2022-12-18T02:13:51;102448.00;;;-19.90;78.71
63819;BME280;49970;54.976;73.248;2022-12-18T02:17:11;102453.03;;;-19.90;78.78
63819;BME280;49970;54.976;73.248;2022-12-18T02:19:47;102456.06;;;-19.94;78.87
63819;BME280;49970;54.976;73.248;2022-12-18T02:22:29;102462.63;;;-19.96;78.68
63819;BME280;49970;54.976;73.248;2022-12-18T02:28:00;102463.88;;;-20.01;78.69
63819;BME280;49970;54.976;73.248;2022-12-18T02:30:39;102461.59;;;-19.98;79.17
63819;BME280;49970;54.976;73.248;2022-12-18T02:33:12;102466.00;;;-19.96;78.71
63819;BME280;49970;54.976;73.248;2022-12-18T02:35:40;102470.03;;;-19.98;77.98
63819;BME280;49970;54.976;73.248;2022-12-18T02:38:13;102453.22;;;-20.07;78.98
63819;BME280;49970;54.976;73.248;2022-12-18T02:40:45;102455.75;;;-20.07;78.39
63819;BME280;49970;54.976;73.248;2022-12-18T02:43:16;102474.34;;;-19.97;78.64
63819;BME280;49970;54.976;73.248;2022-12-18T02:45:58;102480.13;;;-19.98;78.38
63819;BME280;49970;54.976;73.248;2022-12-18T02:48:35;102475.97;;;-19.97;78.79
63819;BME280;49970;54.976;73.248;2022-12-18T02:51:10;102480.75;;;-20.00;78.91
63819;BME280;49970;54.976;73.248;2022-12-18T02:53:51;102477.84;;;-20.05;78.60
63819;BME280;49970;54.976;73.248;2022-12-18T02:56:34;102475.44;;;-20.03;78.55
63819;BME280;49970;54.976;73.248;2022-12-18T02:59:13;102481.13;;;-20.06;77.89
63819;BME280;49970;54.976;73.248;2022-12-18T03:02:01;102487.16;;;-20.04;78.73
63819;BME280;49970;54.976;73.248;2022-12-18T03:07:05;102500.16;;;-19.99;78.91
63819;BME280;49970;54.976;73.248;2022-12-18T03:09:44;102503.56;;;-19.99;78.28
63819;BME280;49970;54.976;73.248;2022-12-18T03:12:36;102499.28;;;-20.00;78.30
63819;BME280;49970;54.976;73.248;2022-12-18T03:15:28;102496.09;;;-20.07;78.54
63819;BME280;49970;54.976;73.248;2022-12-18T03:18:08;102515.19;;;-20.01;77.78
63819;BME280;49970;54.976;73.248;2022-12-18T03:20:37;102501.78;;;-20.10;77.97
63819;BME280;49970;54.976;73.248;2022-12-18T03:23:12;102501.22;;;-20.16;78.46
63819;BME280;49970;54.976;73.248;2022-12-18T03:25:45;102515.47;;;-20.17;78.37
63819;BME280;49970;54.976;73.248;2022-12-18T03:28:35;102521.13;;;-20.19;77.51
63819;BME280;49970;54.976;73.248;2022-12-18T03:32:27;102518.34;;;-20.22;77.73
63819;BME280;49970;54.976;73.248;2022-12-18T03:36:21;102519.97;;;-20.23;78.16
63819;BME280;49970;54.976;73.248;2022-12-18T03:40:13;102523.50;;;-20.21;78.28
63819;BME280;49970;54.976;73.248;2022-12-18T03:44:12;102526.78;;;-20.22;77.76
63819;BME280;49970;54.976;73.248;2022-12-18T03:52:44;102533.81;;;-20.28;77.51
63819;BME280;49970;54.976;73.248;2022-12-18T03:55:12;102536.19;;;-20.29;77.50
63819;BME280;49970;54.976;73.248;2022-12-18T03:57:41;102521.16;;;-20.38;77.57
63819;BME280;49970;54.976;73.248;2022-12-18T04:00:17;102539.13;;;-20.25;78.29
63819;BME280;49970;54.976;73.248;2022-12-18T04:02:57;102533.47;;;-20.22;77.95
63819;BME280;49970;54.976;73.248;2022-12-18T04:05:43;102530.78;;;-20.24;77.09
63819;BME280;49970;54.976;73.248;2022-12-18T04:08:14;102535.63;;;-20.17;77.57
63819;BME280;49970;54.976;73.248;2022-12-18T04:10:47;102530.59;;;-20.17;77.59
63819;BME280;49970;54.976;73.248;2022-12-18T04:13:22;102525.59;;;-20.06;77.23
63819;BME280;49970;54.976;73.248;2022-12-18T04:15:59;102533.91;;;-20.07;78.11
63819;BME280;49970;54.976;73.248;2022-12-18T04:18:31;102534.78;;;-20.07;78.26
63819;BME280;49970;54.976;73.248;2022-12-18T04:20:59;102551.47;;;-19.99;77.73
63819;BME280;49970;54.976;73.248;2022-12-18T04:23:27;102547.06;;;-20.01;77.71
63819;BME280;49970;54.976;73.248;2022-12-18T04:25:57;102558.84;;;-19.92;77.72
63819;BME280;49970;54.976;73.248;2022-12-18T04:28:38;102557.47;;;-19.88;78.34
63819;BME280;49970;54.976;73.248;2022-12-18T04:31:04;102562.03;;;-19.84;78.03
63819;BME280;49970;54.976;73.248;2022-12-18T04:33:31;102567.47;;;-19.79;77.27
63819;BME280;49970;54.976;73.248;2022-12-18T04:35:57;102569.09;;;-19.80;78.48
63819;BME280;49970;54.976;73.248;2022-12-18T04:38:24;102577.75;;;-19.68;77.45
63819;BME280;49970;54.976;73.248;2022-12-18T04:41:08;102572.22;;;-19.64;78.57
63819;BME280;49970;54.976;73.248;2022-12-18T04:43:35;102566.63;;;-19.59;77.81
63819;BME280;49970;54.976;73.248;2022-12-18T04:46:05;102560.47;;;-19.63;78.06
63819;BME280;49970;54.976;73.248;2022-12-18T04:48:36;102575.59;;;-19.53;78.63
63819;BME280;49970;54.976;73.248;2022-12-18T04:51:08;102532.94;;;-19.70;78.67
63819;BME280;49970;54.976;73.248;2022-12-18T04:54:01;102581.19;;;-19.47;77.95
63819;BME280;49970;54.976;73.248;2022-12-18T04:56:27;102581.69;;;-19.51;78.36
63819;BME280;49970;54.976;73.248;2022-12-18T04:58:54;102587.25;;;-19.45;78.35
63819;BME280;49970;54.976;73.248;2022-12-18T05:01:20;102601.13;;;-19.40;77.67
63819;BME280;49970;54.976;73.248;2022-12-18T05:03:46;102591.78;;;-19.41;78.24
63819;BME280;49970;54.976;73.248;2022-12-18T05:06:12;102594.50;;;-19.29;78.08
63819;BME280;49970;54.976;73.248;2022-12-18T05:08:40;102587.41;;;-19.23;77.76
63819;BME280;49970;54.976;73.248;2022-12-18T05:11:09;102596.16;;;-19.19;77.75
63819;BME280;49970;54.976;73.248;2022-12-18T05:13:46;102579.13;;;-19.22;79.01
63819;BME280;49970;54.976;73.248;2022-12-18T05:16:13;102584.19;;;-19.12;79.03
63819;BME280;49970;54.976;73.248;2022-12-18T05:18:40;102581.19;;;-18.97;78.72
63819;BME280;49970;54.976;73.248;2022-12-18T05:21:06;102595.84;;;-18.83;78.28
63819;BME280;49970;54.976;73.248;2022-12-18T05:23:32;102592.31;;;-18.75;78.51
63819;BME280;49970;54.976;73.248;2022-12-18T05:26:03;102588.75;;;-18.67;78.83
63819;BME280;49970;54.976;73.248;2022-12-18T05:28:31;102592.66;;;-18.60;78.56
63819;BME280;49970;54.976;73.248;2022-12-18T05:31:01;102578.25;;;-18.61;79.49
63819;BME280;49970;54.976;73.248;2022-12-18T05:33:33;102587.59;;;-18.50;79.34
63819;BME280;49970;54.976;73.248;2022-12-18T05:36:02;102590.50;;;-18.45;78.76
63819;BME280;49970;54.976;73.248;2022-12-18T05:38:29;102575.84;;;-18.49;78.97
63819;BME280;49970;54.976;73.248;2022-12-18T05:40:56;102602.41;;;-18.34;79.40
63819;BME280;49970;54.976;73.248;2022-12-18T05:43:23;102605.41;;;-18.28;79.31
63819;BME280;49970;54.976;73.248;2022-12-18T05:45:51;102612.75;;;-18.21;79.58
63819;BME280;49970;54.976;73.248;2022-12-18T05:48:17;102609.72;;;-18.17;78.95
63819;BME280;49970;54.976;73.248;2022-12-18T05:50:45;102608.16;;;-18.15;79.86
63819;BME280;49970;54.976;73.248;2022-12-18T05:53:11;102586.44;;;-18.23;79.87
63819;BME280;49970;54.976;73.248;2022-12-18T05:55:39;102612.56;;;-18.02;80.68
63819;BME280;49970;54.976;73.248;2022-12-18T05:58:07;102598.78;;;-18.05;80.65
63819;BME280;49970;54.976;73.248;2022-12-18T06:00:35;102611.53;;;-17.94;79.83
63819;BME280;49970;54.976;73.248;2022-12-18T06:03:11;102602.72;;;-17.99;80.04
63819;BME280;49970;54.976;73.248;2022-12-18T06:05:39;102614.44;;;-17.89;80.80
63819;BME280;49970;54.976;73.248;2022-12-18T06:08:06;102620.00;;;-17.83;80.52
63819;BME280;49970;54.976;73.248;2022-12-18T06:10:32;102611.91;;;-17.79;79.89
63819;BME280;49970;54.976;73.248;2022-12-18T06:13:08;102606.94;;;-17.77;80.65
63819;BME280;49970;54.976;73.248;2022-12-18T06:15:42;102628.03;;;-17.67;80.77
63819;BME280;49970;54.976;73.248;2022-12-18T06:18:08;102613.22;;;-17.62;80.19
63819;BME280;49970;54.976;73.248;2022-12-18T06:20:35;102618.75;;;-17.56;80.64
63819;BME280;49970;54.976;73.248;2022-12-18T06:23:03;102611.50;;;-17.51;80.63
63819;BME280;49970;54.976;73.248;2022-12-18T06:25:37;102607.56;;;-17.48;81.45
63819;BME280;49970;54.976;73.248;2022-12-18T06:28:04;102608.59;;;-17.46;80.53
63819;BME280;49970;54.976;73.248;2022-12-18T06:30:31;102607.41;;;-17.39;81.09
63819;BME280;49970;54.976;73.248;2022-12-18T06:32:57;102607.03;;;-17.33;81.03
63819;BME280;49970;54.976;73.248;2022-12-18T06:35:28;102605.63;;;-17.30;80.71
63819;BME280;49970;54.976;73.248;2022-12-18T06:38:19;102613.16;;;-17.20;81.25
63819;BME280;49970;54.976;73.248;2022-12-18T06:41:50;102609.44;;;-17.13;81.30
63819;BME280;49970;54.976;73.248;2022-12-18T06:44:22;102602.94;;;-17.10;81.45
63819;BME280;49970;54.976;73.248;2022-12-18T06:46:48;102601.88;;;-17.01;81.29
63819;BME280;49970;54.976;73.248;2022-12-18T06:49:14;102599.84;;;-16.95;81.49
63819;BME280;49970;54.976;73.248;2022-12-18T06:51:42;102593.47;;;-16.90;81.05
63819;BME280;49970;54.976;73.248;2022-12-18T06:54:08;102595.34;;;-16.88;81.94
63819;BME280;49970;54.976;73.248;2022-12-18T06:56:34;102603.75;;;-16.77;81.73
63819;BME280;49970;54.976;73.248;2022-12-18T06:59:01;102595.28;;;-16.77;82.11
63819;BME280;49970;54.976;73.248;2022-12-18T07:01:27;102594.75;;;-16.73;82.00
63819;BME280;49970;54.976;73.248;2022-12-18T07:03:56;102602.13;;;-16.65;82.10
63819;BME280;49970;54.976;73.248;2022-12-18T07:06:26;102617.03;;;-16.58;82.02
63819;BME280;49970;54.976;73.248;2022-12-18T07:08:53;102597.53;;;-16.59;82.19
63819;BME280;49970;54.976;73.248;2022-12-18T07:11:20;102608.44;;;-16.48;82.87
63819;BME280;49970;54.976;73.248;2022-12-18T07:13:46;102607.03;;;-16.44;82.69
63819;BME280;49970;54.976;73.248;2022-12-18T07:16:19;102610.78;;;-16.39;82.52
63819;BME280;49970;54.976;73.248;2022-12-18T07:18:46;102607.50;;;-16.38;82.73
63819;BME280;49970;54.976;73.248;2022-12-18T07:21:19;102594.69;;;-16.40;82.58
63819;BME280;49970;54.976;73.248;2022-12-18T07:23:56;102610.16;;;-16.25;82.95
63819;BME280;49970;54.976;73.248;2022-12-18T07:26:24;102608.75;;;-16.21;82.74
63819;BME280;49970;54.976;73.248;2022-12-18T07:28:55;102604.00;;;-16.17;82.75
63819;BME280;49970;54.976;73.248;2022-12-18T07:31:26;102576.97;;;-16.28;83.01
63819;BME280;49970;54.976;73.248;2022-12-18T07:34:02;102599.91;;;-16.15;82.77
63819;BME280;49970;54.976;73.248;2022-12-18T07:36:28;102576.50;;;-16.22;82.71
63819;BME280;49970;54.976;73.248;2022-12-18T07:38:55;102600.72;;;-16.04;83.30
63819;BME280;49970;54.976;73.248;2022-12-18T07:41:21;102598.28;;;-16.02;82.88
63819;BME280;49970;54.976;73.248;2022-12-18T07:43:48;102585.34;;;-16.05;83.60
63819;BME280;49970;54.976;73.248;2022-12-18T07:46:34;102590.66;;;-16.02;83.27
63819;BME280;49970;54.976;73.248;2022-12-18T07:49:45;102577.88;;;-16.04;83.42
63819;BME280;49970;54.976;73.248;2022-12-18T07:52:11;102584.25;;;-15.97;83.16
63819;BME280;49970;54.976;73.248;2022-12-18T07:54:47;102589.00;;;-15.90;83.53
63819;BME280;49970;54.976;73.248;2022-12-18T07:57:16;102581.50;;;-15.89;83.99
63819;BME280;49970;54.976;73.248;2022-12-18T07:59:43;102574.44;;;-15.93;83.56
63819;BME280;49970;54.976;73.248;2022-12-18T08:02:09;102568.94;;;-15.87;83.17
63819;BME280;49970;54.976;73.248;2022-12-18T08:04:35;102572.91;;;-15.79;83.32
63819;BME280;49970;54.976;73.248;2022-12-18T08:07:04;102558.66;;;-15.77;84.13
63819;BME280;49970;54.976;73.248;2022-12-18T08:09:30;102559.75;;;-15.73;84.07
63819;BME280;49970;54.976;73.248;2022-12-18T08:11:56;102554.44;;;-15.76;83.71
63819;BME280;49970;54.976;73.248;2022-12-18T08:14:22;102567.03;;;-15.66;83.97
63819;BME280;49970;54.976;73.248;2022-12-18T08:16:49;102573.19;;;-15.63;83.70
63819;BME280;49970;54.976;73.248;2022-12-18T08:19:15;102579.47;;;-15.58;83.63
63819;BME280;49970;54.976;73.248;2022-12-18T08:21:51;102577.72;;;-15.59;83.77
63819;BME280;49970;54.976;73.248;2022-12-18T08:24:17;102570.84;;;-15.60;83.73
63819;BME280;49970;54.976;73.248;2022-12-18T08:26:48;102577.25;;;-15.53;84.31
63819;BME280;49970;54.976;73.248;2022-12-18T08:29:14;102575.81;;;-15.49;83.74
63819;BME280;49970;54.976;73.248;2022-12-18T08:31:41;102567.41;;;-15.48;84.73
63819;BME280;49970;54.976;73.248;2022-12-18T08:34:07;102559.47;;;-15.53;84.77
63819;BME280;49970;54.976;73.248;2022-12-18T08:36:34;102583.06;;;-15.42;84.26
63819;BME280;49970;54.976;73.248;2022-12-18T08:39:00;102581.44;;;-15.42;84.17
63819;BME280;49970;54.976;73.248;2022-12-18T08:41:26;102574.78;;;-15.40;85.14
63819;BME280;49970;54.976;73.248;2022-12-18T08:43:53;102584.16;;;-15.39;84.28
63819;BME280;49970;54.976;73.248;2022-12-18T08:46:39;102593.69;;;-15.36;85.33
63819;BME280;49970;54.976;73.248;2022-12-18T08:49:07;102585.19;;;-15.37;85.20
63819;BME280;49970;54.976;73.248;2022-12-18T08:51:33;102590.13;;;-15.38;85.31
63819;BME280;49970;54.976;73.248;2022-12-18T08:54:00;102580.66;;;-15.41;84.73
63819;BME280;49970;54.976;73.248;2022-12-18T08:56:31;102593.34;;;-15.29;85.54
63819;BME280;49970;54.976;73.248;2022-12-18T08:58:58;102591.53;;;-15.30;85.33
63819;BME280;49970;54.976;73.248;2022-12-18T09:01:45;102606.56;;;-15.21;85.58
63819;BME280;49970;54.976;73.248;2022-12-18T09:05:36;102586.91;;;-15.24;85.46
63819;BME280;49970;54.976;73.248;2022-12-18T09:09:27;102602.38;;;-15.21;85.10
63819;BME280;49970;54.976;73.248;2022-12-18T09:13:18;102604.78;;;-15.22;85.25
63819;BME280;49970;54.976;73.248;2022-12-18T09:17:10;102607.25;;;-15.24;84.97
63819;BME280;49970;54.976;73.248;2022-12-18T09:21:10;102606.38;;;-15.24;84.77
63819;BME280;49970;54.976;73.248;2022-12-18T09:25:00;102617.19;;;-15.27;85.61
63819;BME280;49970;54.976;73.248;2022-12-18T09:28:53;102618.75;;;-15.29;84.59
63819;BME280;49970;54.976;73.248;2022-12-18T09:32:44;102615.66;;;-15.37;85.27
63819;BME280;49970;54.976;73.248;2022-12-18T09:36:35;102624.38;;;-15.33;84.58
63819;BME280;49970;54.976;73.248;2022-12-18T09:40:26;102634.22;;;-15.38;84.50
63819;BME280;49970;54.976;73.248;2022-12-18T09:44:18;102628.78;;;-15.42;84.48
63819;BME280;49970;54.976;73.248;2022-12-18T09:51:47;102635.13;;;-15.49;84.63
63819;BME280;49970;54.976;73.248;2022-12-18T09:55:28;102629.94;;;-15.50;84.40
63819;BME280;49970;54.976;73.248;2022-12-18T09:58:28;102622.09;;;-15.53;84.79
63819;BME280;49970;54.976;73.248;2022-12-18T10:00:53;102606.94;;;-15.64;84.34
63819;BME280;49970;54.976;73.248;2022-12-18T10:03:19;102626.72;;;-15.60;84.66
63819;BME280;49970;54.976;73.248;2022-12-18T10:08:33;102646.84;;;-15.63;84.76
63819;BME280;49970;54.976;73.248;2022-12-18T10:13:54;102638.56;;;-15.72;84.73
63819;BME280;49970;54.976;73.248;2022-12-18T10:24:54;102629.97;;;-15.86;85.06
63819;BME280;49970;54.976;73.248;2022-12-18T10:27:25;102626.53;;;-15.86;84.80
63819;BME280;49970;54.976;73.248;2022-12-18T10:29:53;102592.97;;;-16.05;85.34
63819;BME280;49970;54.976;73.248;2022-12-18T10:32:22;102618.94;;;-15.86;85.04
63819;BME280;49970;54.976;73.248;2022-12-18T10:34:50;102601.91;;;-15.99;85.61
63819;BME280;49970;54.976;73.248;2022-12-18T10:37:19;102622.56;;;-15.94;85.66
63819;BME280;49970;54.976;73.248;2022-12-18T10:40:06;102642.41;;;-15.89;85.03
63819;BME280;49970;54.976;73.248;2022-12-18T10:42:33;102642.88;;;-15.94;85.24
63819;BME280;49970;54.976;73.248;2022-12-18T10:45:17;102652.47;;;-15.90;85.13
63819;BME280;49970;54.976;73.248;2022-12-18T10:47:45;102664.19;;;-15.92;85.68
63819;BME280;49970;54.976;73.248;2022-12-18T10:50:26;102656.78;;;-15.89;85.22
63819;BME280;49970;54.976;73.248;2022-12-18T10:53:01;102662.72;;;-15.89;85.35
63819;BME280;49970;54.976;73.248;2022-12-18T10:55:39;102666.06;;;-15.90;85.65
63819;BME280;49970;54.976;73.248;2022-12-18T10:58:30;102668.69;;;-16.00;85.58
63819;BME280;49970;54.976;73.248;2022-12-18T11:06:15;102669.44;;;-16.13;84.95
63819;BME280;49970;54.976;73.248;2022-12-18T11:09:24;102656.06;;;-16.10;85.17
63819;BME280;49970;54.976;73.248;2022-12-18T11:11:55;102650.03;;;-16.12;85.37
63819;BME280;49970;54.976;73.248;2022-12-18T11:14:29;102648.38;;;-16.12;85.65
63819;BME280;49970;54.976;73.248;2022-12-18T11:16:58;102655.66;;;-16.04;85.37
63819;BME280;49970;54.976;73.248;2022-12-18T11:19:38;102648.25;;;-16.01;85.15
63819;BME280;49970;54.976;73.248;2022-12-18T11:25:01;102642.50;;;-16.11;85.44
63819;BME280;49970;54.976;73.248;2022-12-18T11:27:34;102657.13;;;-15.96;85.08
63819;BME280;49970;54.976;73.248;2022-12-18T11:30:32;102656.34;;;-15.95;85.10
63819;BME280;49970;54.976;73.248;2022-12-18T11:33:16;102657.75;;;-15.99;85.25
63819;BME280;49970;54.976;73.248;2022-12-18T11:35:56;102651.56;;;-16.02;85.45
63819;BME280;49970;54.976;73.248;2022-12-18T11:38:28;102656.56;;;-15.92;85.80
63819;BME280;49970;54.976;73.248;2022-12-18T11:40:59;102644.75;;;-16.03;85.20
63819;BME280;49970;54.976;73.248;2022-12-18T11:46:06;102644.06;;;-15.89;84.91
63819;BME280;49970;54.976;73.248;2022-12-18T11:51:41;102651.38;;;-15.82;85.36
63819;BME280;49970;54.976;73.248;2022-12-18T11:54:13;102665.06;;;-15.80;85.70
63819;BME280;49970;54.976;73.248;2022-12-18T11:59:52;102657.25;;;-15.71;85.87
63819;BME280;49970;54.976;73.248;2022-12-18T12:05:39;102650.72;;;-15.68;85.84
63819;BME280;49970;54.976;73.248;2022-12-18T12:08:44;102657.44;;;-15.68;85.26
63819;BME280;49970;54.976;73.248;2022-12-18T12:16:58;102656.03;;;-15.65;85.66
63819;BME280;49970;54.976;73.248;2022-12-18T12:27:55;102635.91;;;-15.62;86.96
63819;BME280;49970;54.976;73.248;2022-12-18T12:39:22;102639.41;;;-15.48;85.91
63819;BME280;49970;54.976;73.248;2022-12-18T12:41:49;102647.38;;;-15.43;86.34
63819;BME280;49970;54.976;73.248;2022-12-18T12:44:49;102634.88;;;-15.40;86.33
63819;BME280;49970;54.976;73.248;2022-12-18T12:47:25;102627.81;;;-15.44;86.59
63819;BME280;49970;54.976;73.248;2022-12-18T12:50:06;102654.00;;;-15.34;85.45
63819;BME280;49970;54.976;73.248;2022-12-18T12:52:42;102638.06;;;-15.31;86.02
63819;BME280;49970;54.976;73.248;2022-12-18T12:55:24;102621.94;;;-15.32;86.01
63819;BME280;49970;54.976;73.248;2022-12-18T13:00:19;102616.31;;;-15.27;87.22
63819;BME280;49970;54.976;73.248;2022-12-18T13:05:47;102614.53;;;-15.28;86.65
63819;BME280;49970;54.976;73.248;2022-12-18T13:08:28;102617.50;;;-15.22;87.35
63819;BME280;49970;54.976;73.248;2022-12-18T13:11:00;102629.56;;;-15.20;86.53
63819;BME280;49970;54.976;73.248;2022-12-18T13:13:54;102619.16;;;-15.23;87.43
63819;BME280;49970;54.976;73.248;2022-12-18T13:16:22;102606.78;;;-15.18;86.64
63819;BME280;49970;54.976;73.248;2022-12-18T13:18:52;102603.34;;;-15.19;86.44
63819;BME280;49970;54.976;73.248;2022-12-18T13:21:29;102598.28;;;-15.19;86.49
63819;BME280;49970;54.976;73.248;2022-12-18T13:24:25;102587.25;;;-15.31;87.12
63819;BME280;49970;54.976;73.248;2022-12-18T13:26:57;102597.31;;;-15.21;86.55
63819;BME280;49970;54.976;73.248;2022-12-18T13:29:43;102597.94;;;-15.12;87.32
63819;BME280;49970;54.976;73.248;2022-12-18T13:32:22;102593.41;;;-15.16;87.50
63819;BME280;49970;54.976;73.248;2022-12-18T13:34:49;102597.94;;;-15.12;86.53
63819;BME280;49970;54.976;73.248;2022-12-18T13:37:51;102592.94;;;-15.10;86.92
63819;BME280;49970;54.976;73.248;2022-12-18T13:43:47;102584.66;;;-15.08;86.39
63819;BME280;49970;54.976;73.248;2022-12-18T13:51:54;102563.69;;;-15.17;87.05
63819;BME280;49970;54.976;73.248;2022-12-18T13:54:28;102589.97;;;-15.04;86.12
63819;BME280;49970;54.976;73.248;2022-12-18T13:56:58;102575.06;;;-15.12;87.07
63819;BME280;49970;54.976;73.248;2022-12-18T13:59:36;102564.09;;;-15.11;86.42
63819;BME280;49970;54.976;73.248;2022-12-18T14:02:17;102582.78;;;-15.10;86.99
63819;BME280;49970;54.976;73.248;2022-12-18T14:04:57;102572.06;;;-15.18;86.63
63819;BME280;49970;54.976;73.248;2022-12-18T14:07:28;102591.03;;;-15.01;87.40
63819;BME280;49970;54.976;73.248;2022-12-18T14:09:58;102553.41;;;-15.18;86.56
63819;BME280;49970;54.976;73.248;2022-12-18T14:12:29;102551.16;;;-15.14;86.25
63819;BME280;49970;54.976;73.248;2022-12-18T14:17:47;102587.03;;;-14.97;86.28
63819;BME280;49970;54.976;73.248;2022-12-18T14:20:30;102553.47;;;-15.05;86.48
63819;BME280;49970;54.976;73.248;2022-12-18T14:22:58;102566.47;;;-15.00;87.57
63819;BME280;49970;54.976;73.248;2022-12-18T14:25:29;102544.28;;;-15.03;87.49
63819;BME280;49970;54.976;73.248;2022-12-18T14:30:45;102547.88;;;-14.88;86.30
63819;BME280;49970;54.976;73.248;2022-12-18T14:33:20;102537.59;;;-14.89;87.44
63819;BME280;49970;54.976;73.248;2022-12-18T14:36:02;102534.47;;;-14.85;86.37
63819;BME280;49970;54.976;73.248;2022-12-18T14:38:37;102522.13;;;-14.92;87.27
63819;BME280;49970;54.976;73.248;2022-12-18T14:41:09;102528.81;;;-14.81;86.06
63819;BME280;49970;54.976;73.248;2022-12-18T14:43:38;102517.97;;;-14.78;87.55
63819;BME280;49970;54.976;73.248;2022-12-18T14:46:23;102513.78;;;-14.78;86.18
63819;BME280;49970;54.976;73.248;2022-12-18T14:49:05;102521.78;;;-14.72;87.55
63819;BME280;49970;54.976;73.248;2022-12-18T14:52:22;102525.22;;;-14.71;86.67
63819;BME280;49970;54.976;73.248;2022-12-18T14:54:49;102522.78;;;-14.70;87.48
63819;BME280;49970;54.976;73.248;2022-12-18T14:57:29;102508.19;;;-14.72;86.44
63819;BME280;49970;54.976;73.248;2022-12-18T15:00:14;102503.13;;;-14.72;86.72
63819;BME280;49970;54.976;73.248;2022-12-18T15:02:42;102491.75;;;-14.77;87.27
63819;BME280;49970;54.976;73.248;2022-12-18T15:05:27;102495.59;;;-14.71;87.89